KRNO

Reno / Tahoe International Airport

Reno, Nevada, USA
METAR KRNO 171855Z VRB04KT 10SM CLR 16/M08 A3027 RMK AO2 SLP228 T01561078
Observed Flight Rules
Oct-17 @ 18:55 UTC (25 minutes ago) Visual Flight Rules
Wind Visibility Clouds
Variable at 4 knots 10 miles
  • Clear skies
Temperatures Readings
Current 16°C / 61°F
Dewpoint -8°C / 18°F
Humidity 19%
Altimeter 30.27" Hg
Pressure 1022.8 hPa
Elevation 1342
METAR KRNO 171855Z VRB04KT 10SM CLR 16/M08 A3027 RMK AO2 SLP228 T01561078
Observed Flight Rules
Oct-17 @ 18:55 UTC
(25 minutes ago)
VFR
Wind Visibility
Variable at 4 knots 10 miles
Clouds
  • Clear skies
Temperature Dewpoint
16°C / 61°F -8°C / 18°F
Humidity Altimeter Pressure
19% 30.27" Hg 1022.8 hPa